createdAt,value
2023-02-01T00:00:31.842Z,100901.84
2023-02-01T00:02:58.312Z,100906.06
2023-02-01T00:05:24.786Z,100887.59
2023-02-01T00:07:51.241Z,100904.78
2023-02-01T00:10:18.201Z,100896.53
2023-02-01T00:12:45.247Z,100905.22
2023-02-01T00:15:11.795Z,100874.13
2023-02-01T00:17:38.382Z,100876.66
2023-02-01T00:20:05.576Z,100879.91
2023-02-01T00:22:31.986Z,100879.06
2023-02-01T00:24:58.372Z,100883.53
2023-02-01T00:27:24.831Z,100887.38
2023-02-01T00:29:51.259Z,100883.53
2023-02-01T00:32:18.006Z,100877.84
2023-02-01T00:34:44.405Z,100876.88
2023-02-01T00:37:11.173Z,100886.19
2023-02-01T00:39:37.650Z,100878.34
2023-02-01T00:42:04.616Z,100881.31
2023-02-01T00:44:34.158Z,100853.56
2023-02-01T00:47:01.438Z,100864.66
2023-02-01T00:49:29.235Z,100873.72
2023-02-01T00:51:55.787Z,100878.28
2023-02-01T00:54:22.255Z,100878.16
2023-02-01T00:56:48.802Z,100869.59
2023-02-01T00:59:15.337Z,100883.22
2023-02-01T01:01:41.959Z,100860.19
2023-02-01T01:04:08.506Z,100884.81
2023-02-01T01:06:35.116Z,100872.47
2023-02-01T01:09:04.774Z,100858.22
2023-02-01T01:11:34.655Z,100837.13
2023-02-01T01:14:01.929Z,100862.34
2023-02-01T01:16:30.289Z,100854.13
2023-02-01T01:18:57.743Z,100855.81
2023-02-01T01:21:24.182Z,100837.34
2023-02-01T01:23:51.073Z,100867.78
2023-02-01T01:26:20.574Z,100870.66
2023-02-01T01:28:47.288Z,100848.56
2023-02-01T01:31:16.124Z,100852.19
2023-02-01T01:33:44.893Z,100829.16
2023-02-01T01:36:12.239Z,100831.69
2023-02-01T01:38:40.005Z,100840.59
2023-02-01T01:41:07.260Z,100835.88
2023-02-01T01:43:56.046Z,100827.91
2023-02-01T01:46:43.021Z,100821.47
2023-02-01T01:49:21.432Z,100814.75
2023-02-01T01:51:57.185Z,100816.31
2023-02-01T01:54:31.218Z,100816.03
2023-02-01T01:57:03.078Z,100813.38
2023-02-01T01:59:32.256Z,100795.53
2023-02-01T02:01:59.114Z,100809.75
2023-02-01T02:04:26.361Z,100795.28
2023-02-01T02:06:59.564Z,100801.34
2023-02-01T02:09:26.296Z,100791.41
2023-02-01T02:11:52.723Z,100800.69
2023-02-01T02:14:22.556Z,100810.34
2023-02-01T02:17:02.150Z,100800.56
2023-02-01T02:19:50.213Z,100788.00
2023-02-01T02:22:53.737Z,100786.06
2023-02-01T02:25:47.905Z,100787.16
2023-02-01T02:28:32.211Z,100785.56
2023-02-01T02:31:04.309Z,100785.56
2023-02-01T02:33:40.062Z,100777.34
2023-02-01T02:36:26.286Z,100772.28
2023-02-01T02:39:06.815Z,100770.34
2023-02-01T02:42:06.796Z,100771.44
2023-02-01T02:44:51.593Z,100754.53
2023-02-01T02:47:26.875Z,100757.31
2023-02-01T02:50:24.934Z,100736.59
2023-02-01T02:53:33.281Z,100740.22
2023-02-01T02:56:20.025Z,100718.78
2023-02-01T02:59:06.905Z,100728.19
2023-02-01T03:01:52.750Z,100731.47
2023-02-01T03:04:21.191Z,100740.09
2023-02-01T03:06:48.027Z,100724.88
2023-02-01T03:09:21.492Z,100732.13
2023-02-01T03:12:10.367Z,100719.38
2023-02-01T03:14:41.142Z,100717.22
2023-02-01T03:17:16.617Z,100715.66
2023-02-01T03:19:51.135Z,100700.72
2023-02-01T03:22:27.364Z,100718.94
2023-02-01T03:25:03.285Z,100718.56
2023-02-01T03:27:37.037Z,100711.22
2023-02-01T03:30:26.761Z,100703.03
2023-02-01T03:33:00.067Z,100688.94
2023-02-01T03:36:20.186Z,100699.66
2023-02-01T03:38:57.060Z,100678.91
2023-02-01T03:41:46.817Z,100687.25
2023-02-01T03:44:24.799Z,100690.75
2023-02-01T03:47:04.869Z,100687.50
2023-02-01T03:49:36.375Z,100677.13
2023-02-01T03:52:04.913Z,100684.38
2023-02-01T03:54:32.672Z,100653.84
2023-02-01T03:57:04.387Z,100666.16
2023-02-01T03:59:31.203Z,100666.41
2023-02-01T04:01:57.602Z,100664.00
2023-02-01T04:04:24.017Z,100663.88
2023-02-01T04:06:51.981Z,100664.72
2023-02-01T04:09:18.804Z,100662.91
2023-02-01T04:11:45.240Z,100666.53
2023-02-01T04:14:11.720Z,100657.84
2023-02-01T04:16:38.235Z,100650.38
2023-02-01T04:19:04.892Z,100662.41
2023-02-01T04:21:31.407Z,100643.25
2023-02-01T04:23:58.051Z,100646.03
2023-02-01T04:26:27.377Z,100638.47
2023-02-01T04:28:54.346Z,100633.50
2023-02-01T04:31:26.717Z,100648.94
2023-02-01T04:33:54.183Z,100633.16
2023-02-01T04:36:22.795Z,100640.16
2023-02-01T04:38:53.172Z,100638.19
2023-02-01T04:41:20.992Z,100640.25
2023-02-01T04:43:48.151Z,100641.34
2023-02-01T04:46:14.960Z,100651.00
2023-02-01T04:48:42.337Z,100616.75
2023-02-01T04:51:09.476Z,100639.19
2023-02-01T04:53:37.732Z,100636.06
2023-02-01T04:56:04.355Z,100647.38
2023-02-01T04:58:30.825Z,100644.25
2023-02-01T05:00:57.528Z,100656.81
2023-02-01T05:03:23.961Z,100663.31
2023-02-01T05:05:50.415Z,100653.09
2023-02-01T05:08:16.943Z,100673.69
2023-02-01T05:10:43.345Z,100645.22
2023-02-01T05:13:29.651Z,100665.13
2023-02-01T05:15:56.162Z,100651.16
2023-02-01T05:18:22.648Z,100646.44
2023-02-01T05:20:49.113Z,100647.28
2023-02-01T05:23:15.602Z,100624.00
2023-02-01T05:25:42.184Z,100631.47
2023-02-01T05:28:08.608Z,100619.88
2023-02-01T05:30:36.235Z,100612.34
2023-02-01T05:33:03.530Z,100635.53
2023-02-01T05:35:30.399Z,100640.50
2023-02-01T05:37:56.851Z,100641.59
2023-02-01T05:40:23.603Z,100664.72
2023-02-01T05:42:50.278Z,100649.91
2023-02-01T05:45:16.730Z,100659.97
2023-02-01T05:47:43.286Z,100664.66
2023-02-01T05:50:10.130Z,100662.91
2023-02-01T05:52:36.551Z,100622.88
2023-02-01T05:55:03.177Z,100663.16
2023-02-01T05:57:29.750Z,100660.97
2023-02-01T05:59:56.206Z,100646.91
2023-02-01T06:02:22.864Z,100648.19
2023-02-01T06:04:49.437Z,100649.50
2023-02-01T06:07:15.921Z,100637.34
2023-02-01T06:09:42.317Z,100635.66
2023-02-01T06:12:09.149Z,100613.19
2023-02-01T06:14:35.570Z,100633.66
2023-02-01T06:17:01.990Z,100636.28
2023-02-01T06:19:28.387Z,100634.16
2023-02-01T06:21:55.078Z,100618.97
2023-02-01T06:24:21.577Z,100625.38
2023-02-01T06:26:48.000Z,100619.53
2023-02-01T06:29:14.557Z,100630.00
2023-02-01T06:31:41.437Z,100610.75
2023-02-01T06:34:08.030Z,100640.34
2023-02-01T06:36:34.493Z,100627.97
2023-02-01T06:39:00.933Z,100640.13
2023-02-01T06:41:29.416Z,100626.78
2023-02-01T06:43:56.276Z,100609.44
2023-02-01T06:46:22.790Z,100619.63
2023-02-01T06:48:50.192Z,100614.22
2023-02-01T06:51:25.243Z,100597.38
2023-02-01T06:53:52.146Z,100603.75
2023-02-01T06:56:18.891Z,100615.59
2023-02-01T06:58:45.548Z,100623.13
2023-02-01T07:01:12.303Z,100641.59
2023-02-01T07:03:39.204Z,100620.66
2023-02-01T07:06:07.097Z,100636.06
2023-02-01T07:08:36.078Z,100640.94
2023-02-01T07:11:07.787Z,100653.69
2023-02-01T07:13:35.023Z,100650.94
2023-02-01T07:16:03.668Z,100661.91
2023-02-01T07:18:32.036Z,100652.06
2023-02-01T07:20:58.964Z,100648.22
2023-02-01T07:23:25.890Z,100628.69
2023-02-01T07:26:00.920Z,100623.03
2023-02-01T07:28:29.907Z,100626.31
2023-02-01T07:30:56.437Z,100652.19
2023-02-01T07:33:27.767Z,100640.97
2023-02-01T07:35:54.459Z,100644.34
2023-02-01T07:38:22.659Z,100615.81
2023-02-01T07:40:49.061Z,100631.22
2023-02-01T07:43:15.493Z,100623.66
2023-02-01T07:45:41.974Z,100635.22
2023-02-01T07:48:08.378Z,100636.56
2023-02-01T07:50:35.113Z,100638.59
2023-02-01T07:53:02.231Z,100648.00
2023-02-01T07:55:29.087Z,100644.50
2023-02-01T07:57:59.051Z,100637.88
2023-02-01T08:00:44.868Z,100650.28
2023-02-01T08:03:11.347Z,100651.50
2023-02-01T08:05:37.960Z,100653.66
2023-02-01T08:08:05.016Z,100654.16
2023-02-01T08:10:31.690Z,100627.53
2023-02-01T08:13:01.986Z,100646.56
2023-02-01T08:15:28.570Z,100666.66
2023-02-01T08:17:59.378Z,100673.19
2023-02-01T08:20:29.219Z,100682.72
2023-02-01T08:22:56.087Z,100665.94
2023-02-01T08:25:23.841Z,100675.94
2023-02-01T08:27:51.101Z,100689.31
2023-02-01T08:30:17.808Z,100700.38
2023-02-01T08:32:44.514Z,100669.91
2023-02-01T08:35:10.996Z,100679.16
2023-02-01T08:37:37.561Z,100682.78
2023-02-01T08:40:05.567Z,100691.31
2023-02-01T08:42:50.395Z,100678.44
2023-02-01T08:45:17.111Z,100676.75
2023-02-01T08:47:44.063Z,100666.72
2023-02-01T08:50:11.412Z,100668.66
2023-02-01T08:52:38.349Z,100667.38
2023-02-01T08:55:05.716Z,100650.25
2023-02-01T08:57:32.755Z,100669.28
2023-02-01T08:59:59.197Z,100668.56
2023-02-01T09:02:25.815Z,100657.59
2023-02-01T09:04:52.364Z,100670.16
2023-02-01T09:07:18.926Z,100649.41
2023-02-01T09:09:46.371Z,100634.00
2023-02-01T09:12:12.891Z,100662.75
2023-02-01T09:14:39.323Z,100657.91
2023-02-01T09:17:06.730Z,100613.66
2023-02-01T09:19:33.150Z,100652.81
2023-02-01T09:21:59.676Z,100657.88
2023-02-01T09:24:26.189Z,100641.22
2023-02-01T09:26:53.583Z,100664.47
2023-02-01T09:29:20.157Z,100649.44
2023-02-01T09:31:57.686Z,100664.03
2023-02-01T09:34:29.797Z,100665.06
2023-02-01T09:36:56.492Z,100656.25
2023-02-01T09:39:23.046Z,100658.16
2023-02-01T09:41:49.432Z,100662.34
2023-02-01T09:44:43.874Z,100668.00
2023-02-01T09:47:23.122Z,100667.88
2023-02-01T09:49:56.867Z,100647.38
2023-02-01T09:52:39.799Z,100658.53
2023-02-01T09:55:16.223Z,100654.50
2023-02-01T09:58:14.136Z,100659.06
2023-02-01T10:00:45.853Z,100663.38
2023-02-01T10:03:13.877Z,100654.09
2023-02-01T10:06:10.307Z,100648.59
2023-02-01T10:09:04.642Z,100660.75
2023-02-01T10:11:49.678Z,100650.84
2023-02-01T10:14:24.924Z,100650.56
2023-02-01T10:17:03.857Z,100645.53
2023-02-01T10:19:36.608Z,100658.63
2023-02-01T10:22:10.598Z,100666.84
2023-02-01T10:24:37.194Z,100650.31
2023-02-01T10:27:09.678Z,100660.69
2023-02-01T10:29:39.620Z,100652.84
2023-02-01T10:32:33.195Z,100642.72
2023-02-01T10:35:03.124Z,100646.78
2023-02-01T10:37:34.632Z,100636.09
2023-02-01T10:40:13.105Z,100631.69
2023-02-01T10:42:40.814Z,100623.31
2023-02-01T10:45:08.145Z,100611.34
2023-02-01T10:47:34.551Z,100616.78
2023-02-01T10:50:23.305Z,100614.66
2023-02-01T10:52:57.974Z,100613.50
2023-02-01T10:55:41.037Z,100605.91
2023-02-01T10:58:16.818Z,100579.03
2023-02-01T11:00:50.116Z,100570.00
2023-02-01T11:03:43.201Z,100589.44
2023-02-01T11:06:22.739Z,100566.34
2023-02-01T11:08:52.198Z,100574.69
2023-02-01T11:11:20.152Z,100557.59
2023-02-01T11:13:54.206Z,100546.00
2023-02-01T11:16:20.817Z,100559.06
2023-02-01T11:18:55.774Z,100569.06
2023-02-01T11:21:23.308Z,100569.13
2023-02-01T11:23:49.962Z,100562.72
2023-02-01T11:26:24.582Z,100555.19
2023-02-01T11:28:59.569Z,100548.91
2023-02-01T11:31:28.450Z,100546.56
2023-02-01T11:34:00.364Z,100535.09
2023-02-01T11:36:30.924Z,100523.91
2023-02-01T11:39:11.135Z,100532.50
2023-02-01T11:41:45.448Z,100528.22
2023-02-01T11:44:27.483Z,100523.03
2023-02-01T11:46:53.993Z,100486.97
2023-02-01T11:49:27.816Z,100507.94
2023-02-01T11:52:07.519Z,100480.19
2023-02-01T11:54:42.914Z,100508.78
2023-02-01T11:57:29.571Z,100505.28
2023-02-01T12:00:14.820Z,100507.22
2023-02-01T12:03:13.659Z,100512.53
2023-02-01T12:06:15.459Z,100508.22
2023-02-01T12:09:03.378Z,100489.72
2023-02-01T12:11:43.174Z,100499.22
2023-02-01T12:14:20.116Z,100507.13
2023-02-01T12:16:56.394Z,100511.47
2023-02-01T12:19:41.416Z,100503.44
2023-02-01T12:22:29.387Z,100502.06
2023-02-01T12:25:21.654Z,100512.06
2023-02-01T12:28:08.135Z,100521.97
2023-02-01T12:30:49.816Z,100525.16
2023-02-01T12:33:39.480Z,100529.41
2023-02-01T12:36:24.762Z,100535.47
2023-02-01T12:39:14.257Z,100528.91
2023-02-01T12:41:52.903Z,100524.75
2023-02-01T12:44:33.127Z,100539.47
2023-02-01T12:47:07.110Z,100525.38
2023-02-01T12:49:44.189Z,100532.66
2023-02-01T12:52:21.233Z,100521.72
2023-02-01T12:54:58.849Z,100523.75
2023-02-01T12:57:31.801Z,100519.41
2023-02-01T13:00:18.441Z,100490.91
2023-02-01T13:02:50.587Z,100517.13
2023-02-01T13:05:30.907Z,100504.28
2023-02-01T13:08:06.167Z,100498.25
2023-02-01T13:10:38.262Z,100491.97
2023-02-01T13:13:32.075Z,100486.56
2023-02-01T13:16:25.442Z,100471.13
2023-02-01T13:18:54.648Z,100484.19
2023-02-01T13:21:34.013Z,100502.31
2023-02-01T13:24:00.454Z,100501.75
2023-02-01T13:26:26.870Z,100496.56
2023-02-01T13:28:59.351Z,100476.53
2023-02-01T13:31:45.903Z,100497.66
2023-02-01T13:34:31.825Z,100503.34
2023-02-01T13:37:31.889Z,100493.84
2023-02-01T13:40:19.872Z,100486.91
2023-02-01T13:42:53.825Z,100481.19
2023-02-01T13:45:24.174Z,100473.63
2023-02-01T13:47:54.257Z,100475.84
2023-02-01T13:50:24.045Z,100467.63
2023-02-01T13:53:14.592Z,100467.88
2023-02-01T13:55:45.774Z,100458.66
2023-02-01T13:58:42.890Z,100452.91
2023-02-01T14:01:24.642Z,100521.13
2023-02-01T14:04:03.477Z,100492.41
2023-02-01T14:06:34.844Z,100502.41
2023-02-01T14:09:13.237Z,100504.97
2023-02-01T14:11:50.137Z,100505.72
2023-02-01T14:14:16.499Z,100496.69
2023-02-01T14:17:02.848Z,100497.88
2023-02-01T14:19:34.358Z,100497.44
2023-02-01T14:22:02.668Z,100498.53
2023-02-01T14:24:35.502Z,100531.88
2023-02-01T14:27:17.461Z,100526.13
2023-02-01T14:29:58.764Z,100546.25
2023-02-01T14:32:31.633Z,100573.66
2023-02-01T14:35:01.883Z,100567.53
2023-02-01T14:37:40.330Z,100573.25
2023-02-01T14:40:26.215Z,100578.22
2023-02-01T14:42:53.899Z,100567.16
2023-02-01T14:45:23.887Z,100576.72
2023-02-01T14:47:55.476Z,100576.50
2023-02-01T14:50:29.404Z,100578.47
2023-02-01T14:53:11.318Z,100576.19
2023-02-01T14:55:50.572Z,100580.22
2023-02-01T14:58:35.666Z,100575.03
2023-02-01T15:01:16.105Z,100581.66
2023-02-01T15:03:53.696Z,100581.91
2023-02-01T15:06:42.089Z,100584.72
2023-02-01T15:09:13.466Z,100583.03
2023-02-01T15:12:07.121Z,100589.28
2023-02-01T15:14:43.477Z,100593.03
2023-02-01T15:17:22.123Z,100576.63
2023-02-01T15:20:04.880Z,100595.06
2023-02-01T15:22:35.458Z,100589.91
2023-02-01T15:25:02.701Z,100586.78
2023-02-01T15:27:30.575Z,100587.03
2023-02-01T15:30:07.669Z,100573.66
2023-02-01T15:32:38.958Z,100589.31
2023-02-01T15:35:06.567Z,100572.81
2023-02-01T15:37:33.220Z,100602.22
2023-02-01T15:40:25.917Z,100619.81
2023-02-01T15:42:55.897Z,100615.59
2023-02-01T15:45:27.898Z,100629.81
2023-02-01T15:47:56.751Z,100606.19
2023-02-01T15:50:26.083Z,100575.72
2023-02-01T15:52:54.964Z,100608.00
2023-02-01T15:55:24.208Z,100598.00
2023-02-01T15:57:52.357Z,100597.78
2023-02-01T16:00:29.572Z,100599.22
2023-02-01T16:03:06.003Z,100606.94
2023-02-01T16:05:38.418Z,100610.31
2023-02-01T16:08:18.186Z,100592.84
2023-02-01T16:10:50.235Z,100594.03
2023-02-01T16:13:18.201Z,100611.03
2023-02-01T16:15:45.416Z,100618.84
2023-02-01T16:18:13.281Z,100598.47
2023-02-01T16:20:41.469Z,100629.31
2023-02-01T16:23:09.250Z,100620.63
2023-02-01T16:25:37.169Z,100625.94
2023-02-01T16:28:04.049Z,100634.50
2023-02-01T16:30:30.501Z,100632.47
2023-02-01T16:32:58.767Z,100636.81
2023-02-01T16:35:36.821Z,100631.50
2023-02-01T16:38:14.449Z,100639.81
2023-02-01T16:40:42.144Z,100631.63
2023-02-01T16:43:22.531Z,100643.78
2023-02-01T16:45:50.426Z,100640.88
2023-02-01T16:48:29.285Z,100646.91
2023-02-01T16:50:58.463Z,100637.28
2023-02-01T16:53:28.474Z,100623.66
2023-02-01T16:55:55.351Z,100657.75
2023-02-01T16:58:24.621Z,100653.19
2023-02-01T17:00:52.184Z,100659.94
2023-02-01T17:03:20.070Z,100659.81
2023-02-01T17:05:52.980Z,100659.44
2023-02-01T17:08:27.834Z,100678.72
2023-02-01T17:10:54.304Z,100666.06
2023-02-01T17:13:20.702Z,100665.84
2023-02-01T17:15:57.727Z,100660.25
2023-02-01T17:18:25.896Z,100659.69
2023-02-01T17:20:53.172Z,100664.47
2023-02-01T17:23:20.507Z,100671.09
2023-02-01T17:25:48.399Z,100669.28
2023-02-01T17:28:14.965Z,100670.03
2023-02-01T17:30:42.330Z,100660.97
2023-02-01T17:33:22.315Z,100668.09
2023-02-01T17:35:49.328Z,100664.91
2023-02-01T17:38:15.842Z,100645.50
2023-02-01T17:40:43.335Z,100675.28
2023-02-01T17:43:15.147Z,100681.31
2023-02-01T17:45:55.234Z,100664.19
2023-02-01T17:48:22.974Z,100674.09
2023-02-01T17:50:54.563Z,100676.50
2023-02-01T17:53:24.447Z,100679.47
2023-02-01T17:55:52.234Z,100692.75
2023-02-01T17:58:19.524Z,100683.47
2023-02-01T18:00:47.745Z,100675.38
2023-02-01T18:03:23.850Z,100682.09
2023-02-01T18:05:53.557Z,100682.56
2023-02-01T18:08:28.397Z,100676.88
2023-02-01T18:10:59.915Z,100687.25
2023-02-01T18:13:31.138Z,100673.00
2023-02-01T18:15:59.797Z,100669.78
2023-02-01T18:18:26.253Z,100674.31
2023-02-01T18:20:52.781Z,100676.97
2023-02-01T18:23:22.223Z,100676.97
2023-02-01T18:25:51.437Z,100681.56
2023-02-01T18:28:19.619Z,100682.88
2023-02-01T18:30:50.737Z,100658.91
2023-02-01T18:33:19.162Z,100675.16
2023-02-01T18:35:45.551Z,100677.22
2023-02-01T18:38:11.969Z,100664.06
2023-02-01T18:40:46.139Z,100662.13
2023-02-01T18:43:13.615Z,100670.94
2023-02-01T18:45:42.443Z,100671.19
2023-02-01T18:48:10.463Z,100667.84
2023-02-01T18:50:39.420Z,100677.59
2023-02-01T18:53:08.275Z,100683.75
2023-02-01T18:55:34.801Z,100665.03
2023-02-01T18:58:03.157Z,100663.25
2023-02-01T19:00:30.037Z,100670.09
2023-02-01T19:02:56.486Z,100667.19
2023-02-01T19:05:23.340Z,100667.78
2023-02-01T19:07:50.140Z,100684.31
2023-02-01T19:10:24.293Z,100674.13
2023-02-01T19:12:52.540Z,100664.47
2023-02-01T19:15:18.984Z,100661.44
2023-02-01T19:17:48.566Z,100652.97
2023-02-01T19:20:19.141Z,100667.09
2023-02-01T19:22:46.629Z,100660.94
2023-02-01T19:25:16.690Z,100682.97
2023-02-01T19:27:43.276Z,100670.31
2023-02-01T19:30:12.761Z,100703.44
2023-02-01T19:32:39.943Z,100696.31
2023-02-01T19:35:08.080Z,100722.81
2023-02-01T19:37:34.596Z,100721.19
2023-02-01T19:40:01.234Z,100711.84
2023-02-01T19:42:28.683Z,100724.81
2023-02-01T19:44:55.067Z,100694.06
2023-02-01T19:47:21.508Z,100706.91
2023-02-01T19:49:47.962Z,100699.56
2023-02-01T19:52:14.344Z,100723.34
2023-02-01T19:54:40.762Z,100722.38
2023-02-01T19:57:07.315Z,100710.81
2023-02-01T19:59:33.723Z,100697.31
2023-02-01T20:01:59.303Z,100703.69
2023-02-01T20:04:26.349Z,100689.56
2023-02-01T20:06:54.823Z,100691.63
2023-02-01T20:09:27.927Z,100694.53
2023-02-01T20:11:54.692Z,100729.34
2023-02-01T20:14:24.059Z,100728.38
2023-02-01T20:16:50.485Z,100721.25
2023-02-01T20:19:16.910Z,100729.22
2023-02-01T20:21:43.941Z,100732.81
2023-02-01T20:24:14.581Z,100724.75
2023-02-01T20:26:43.068Z,100710.78
2023-02-01T20:29:09.706Z,100714.41
2023-02-01T20:31:36.670Z,100717.75
2023-02-01T20:34:03.757Z,100712.72
2023-02-01T20:36:31.635Z,100713.06
2023-02-01T20:38:58.842Z,100719.09
2023-02-01T20:41:26.837Z,100703.81
2023-02-01T20:43:53.638Z,100716.09
2023-02-01T20:46:20.221Z,100695.97
2023-02-01T20:48:49.089Z,100706.69
2023-02-01T20:51:17.551Z,100722.50
2023-02-01T20:53:44.740Z,100711.75
2023-02-01T20:56:15.514Z,100714.31
2023-02-01T20:58:42.987Z,100707.06
2023-02-01T21:01:10.388Z,100698.75
2023-02-01T21:03:38.463Z,100689.97
2023-02-01T21:06:05.850Z,100700.69
2023-02-01T21:08:32.735Z,100704.78
2023-02-01T21:11:01.942Z,100693.78
2023-02-01T21:13:30.813Z,100682.09
2023-02-01T21:15:57.762Z,100698.25
2023-02-01T21:18:24.761Z,100700.63
2023-02-01T21:20:51.351Z,100692.78
2023-02-01T21:23:18.232Z,100719.66
2023-02-01T21:25:44.730Z,100719.31
2023-02-01T21:28:13.352Z,100714.47
2023-02-01T21:30:40.156Z,100723.72
2023-02-01T21:33:07.730Z,100737.47
2023-02-01T21:35:34.150Z,100736.28
2023-02-01T21:38:00.587Z,100730.72
2023-02-01T21:40:27.274Z,100682.28
2023-02-01T21:42:53.750Z,100744.56
2023-02-01T21:45:20.356Z,100728.63
2023-02-01T21:47:48.789Z,100735.28
2023-02-01T21:50:18.129Z,100728.50
2023-02-01T21:52:45.019Z,100759.84
2023-02-01T21:55:12.887Z,100755.06
2023-02-01T21:57:39.464Z,100729.13
2023-02-01T22:00:08.713Z,100740.69
2023-02-01T22:02:35.782Z,100756.75
2023-02-01T22:05:05.207Z,100768.06
2023-02-01T22:07:34.728Z,100761.72
2023-02-01T22:10:01.751Z,100776.75
2023-02-01T22:12:28.155Z,100759.97
2023-02-01T22:14:54.713Z,100750.84
2023-02-01T22:17:21.335Z,100782.78
2023-02-01T22:19:47.782Z,100780.38
2023-02-01T22:22:14.215Z,100770.72
2023-02-01T22:24:40.617Z,100783.88
2023-02-01T22:27:13.862Z,100767.13
2023-02-01T22:29:41.831Z,100783.88
2023-02-01T22:32:09.085Z,100782.59
2023-02-01T22:34:35.566Z,100789.44
2023-02-01T22:37:03.011Z,100796.22
2023-02-01T22:39:29.418Z,100801.53
2023-02-01T22:41:55.808Z,100791.06
2023-02-01T22:44:23.771Z,100806.78
2023-02-01T22:46:50.527Z,100817.97
2023-02-01T22:49:17.347Z,100831.34
2023-02-01T22:51:44.008Z,100821.25
2023-02-01T22:54:17.913Z,100828.84
2023-02-01T22:56:44.531Z,100814.25
2023-02-01T22:59:13.506Z,100834.75
2023-02-01T23:01:41.160Z,100824.16
2023-02-01T23:04:11.826Z,100833.06
2023-02-01T23:06:38.464Z,100806.53
2023-02-01T23:09:14.465Z,100847.69
2023-02-01T23:11:41.889Z,100848.66
2023-02-01T23:14:09.036Z,100853.56
2023-02-01T23:16:36.246Z,100856.72
2023-02-01T23:19:02.808Z,100845.84
2023-02-01T23:21:29.248Z,100859.75
2023-02-01T23:23:57.650Z,100858.66
2023-02-01T23:26:26.654Z,100855.25
2023-02-01T23:28:55.191Z,100827.22
2023-02-01T23:31:23.852Z,100849.28
2023-02-01T23:33:54.704Z,100829.53
2023-02-01T23:36:22.280Z,100872.34
2023-02-01T23:38:48.714Z,100870.16
2023-02-01T23:41:16.498Z,100859.31
2023-02-01T23:43:59.110Z,100863.03
2023-02-01T23:46:48.757Z,100850.97
2023-02-01T23:49:17.008Z,100867.28
2023-02-01T23:51:44.461Z,100890.00
2023-02-01T23:54:11.694Z,100863.69
2023-02-01T23:56:41.961Z,100867.47
2023-02-01T23:59:30.405Z,100875.53
